• Join FlightAware (Why Join?)
  • Login
  • US Flag 
06:42PM EDT


 

Airport Tracker/Info


-or-


 

Live Flight TrackerFlight Track Log ✈ UCA596 ✈ 17-Feb-2014 ✈ KIAD - KBGM

Flight Track Log - Related Links

Times and Time Zones

All times are in EST time to prevent confusion due to time zone crossing. See the UCA596 flight status page for this flight to view local times or setup timezone preferences in your user account.

Time Position Orientation Groundspeed Altitude Reporting Facility
EST Latitude Longitude Course Direction KTS MPH feet Rate Location/Type
07:05PM 38.9667 -77.5333 322° Northwest 159 183 2,500  Level Potomac TRACON
07:06PM 39.0000 -77.5667 322° Northwest 197 227 3,900 1,260 Climbing Potomac TRACON
07:07PM 39.0667 -77.5667 360° North 217 250 5,100 1,260 Climbing Potomac TRACON
07:08PM 39.1167 -77.5833 346° North 219 252 6,500 1,380 Climbing Potomac TRACON
07:09PM 39.1833 -77.6000 349° North 218 251 7,900 1,440 Climbing Potomac TRACON
07:12PM 39.3225 -77.5556 14° North 222 255 11,700 1,560 Climbing Washington Center
07:13PM 39.3769 -77.5381 14° North 215 247 13,400 1,620 Climbing Washington Center
07:14PM 39.4294 -77.5233 12° North 197 227 15,000 1,560 Climbing Washington Center
07:15PM 39.4839 -77.5061 14° North 197 227 16,600 1,200 Climbing Washington Center
07:16PM 39.5744 -77.4806 12° North 202 232 18,200 900 Climbing New York Center
07:17PM 39.6236 -77.4583 19° North 207 238 19,000 360 Climbing New York Center
07:18PM 39.6972 -77.4492 North 229 264 19,000  Level New York Center
07:19PM 39.7639 -77.4503 359° North 254 292 19,000  Level New York Center
07:20PM 39.8472 -77.4500 360° North 259 298 19,000  Level New York Center
07:21PM 39.9222 -77.4517 359° North 270 311 19,000  Level New York Center
07:22PM 40.0017 -77.4483 North 276 318 19,000  Level New York Center
07:23PM 40.0789 -77.4478 360° North 276 318 19,000  Level New York Center
07:24PM 40.1581 -77.4472 360° North 276 318 19,000  Level New York Center
07:25PM 40.2375 -77.4439 North 276 318 19,000  Level New York Center
07:26PM 40.3147 -77.4431 360° North 276 318 19,000  Level New York Center
07:27PM 40.3939 -77.4425 360° North 276 318 19,000  Level New York Center
07:28PM 40.4711 -77.4447 359° North 276 318 19,000  Level New York Center
07:29PM 40.5503 -77.4442 360° North 276 318 19,000  Level New York Center
07:30PM 40.6256 -77.4022 23° Northeast 276 318 19,000  Level New York Center
07:31PM 40.6956 -77.3406 34° Northeast 298 343 19,000  Level New York Center
07:32PM 40.7569 -77.2861 34° Northeast 298 343 19,000  Level New York Center
07:33PM 40.8292 -77.2244 33° Northeast 298 343 19,000  Level New York Center
07:34PM 40.8992 -77.1622 34° Northeast 298 343 19,000  Level New York Center
07:35PM 40.9692 -77.1031 33° Northeast 298 343 19,000  Level New York Center
07:36PM 41.0389 -77.0433 33° Northeast 298 343 19,000  Level New York Center
07:37PM 41.1092 -76.9783 35° Northeast 298 343 19,000 -180 Level New York Center
07:38PM 41.1769 -76.9183 34° Northeast 298 343 18,700 -540 Descending New York Center
07:39PM 41.2489 -76.8531 34° Northeast 298 343 18,000 -600 Descending New York Center
07:40PM 41.3167 -76.7928 34° Northeast 298 343 17,600 -600 Descending New York Center
07:41PM 41.3864 -76.7300 34° Northeast 298 343 16,900 -720 Descending New York Center
07:42PM 41.4564 -76.6669 34° Northeast 298 343 16,200 -720 Descending New York Center
07:43PM 41.5261 -76.6039 34° Northeast 298 343 15,500 -720 Descending New York Center
07:44PM 41.6025 -76.5328 35° Northeast 293 337 14,800 -720 Descending New York Center
07:45PM 41.6700 -76.4719 34° Northeast 293 337 14,100 -840 Descending New York Center
07:46PM 41.7414 -76.4114 32° Northeast 298 343 13,200 -900 Descending New York Center
07:47PM 41.8003 -76.3550 36° Northeast 288 331 12,300 -1,020 Descending New York Center
07:48PM 41.8669 -76.3106 26° Northeast 272 313 11,200 -1,260 Descending New York Center
07:49PM 41.9442 -76.2614 25° Northeast 272 313 9,800 -1,260 Descending New York Center
07:50PM 42.0153 -76.2142 26° Northeast 272 313 8,700 -1,200 Descending New York Center
07:51PM 42.0858 -76.1697 25° Northeast 272 313 7,500 -1,260 Descending New York Center
07:52PM 42.1503 -76.1272 26° Northeast 272 313 6,200 -1,200 Descending New York Center
07:53PM 42.2061 -76.0900 26° Northeast 250 288 5,100 -1,020 Descending New York Center
07:54PM 42.2622 -76.0917 359° North 213 245 4,200 -780 Descending New York Center
07:55PM 42.2747 -76.0422 71° East 146 168 3,600 -660 Descending New York Center
07:56PM 42.2528 -76.0208 144° Southeast 66 76 2,900 -720 Descending New York Center
07:57PM 42.2350 -75.9997 139° Southeast 72 83 2,200 4,020 Descending New York Center
07:58PM 42.2297 -75.9769 107° East 72 83 11,000 4,380 Climbing New York Center
07:59PM 42.2203 -75.9567 122° Southeast 72 83 11,000  Level New York Center
08:00PM 42.2108 -75.9336 119° Southeast 72 83 11,000  Level New York Center
08:02PM 42.2000 -75.9667 North  Level FlightAware Approximate